Time;durP1;ratioP1;P1;durP2;ratioP2;P2;SDS_P1;SDS_P2;PMS_P1;PMS_P2;Temp;Humidity;BMP_temperature;BMP_pressure;BME280_temperature;BME280_humidity;BME280_pressure;Samples;Min_cycle;Max_cycle;Signal;HPM_P1;HPM_P2
2021/09/18 00:01:07;;;;;;;9.25;6.43;;;13.50;99.90;;;;;;5072156;28;20035;-75
2021/09/18 00:03:33;;;;;;;9.95;6.47;;;13.50;99.90;;;;;;5071047;28;20056;-75
2021/09/18 00:05:58;;;;;;;11.40;6.05;;;13.70;99.90;;;;;;5070968;28;20469;-76
2021/09/18 00:08:24;;;;;;;9.85;5.65;;;13.80;99.90;;;;;;5087539;28;20029;-75
2021/09/18 00:10:50;;;;;;;10.30;5.72;;;13.90;99.90;;;;;;5072132;28;20028;-75
2021/09/18 00:13:16;;;;;;;8.60;5.93;;;13.90;99.90;;;;;;5070591;28;20036;-75
2021/09/18 00:15:42;;;;;;;12.98;6.70;;;13.90;99.90;;;;;;5071812;28;20045;-75
2021/09/18 00:18:08;;;;;;;8.20;5.60;;;13.90;99.90;;;;;;5070448;28;20420;-75
2021/09/18 00:20:34;;;;;;;11.20;6.22;;;14.10;99.90;;;;;;5070735;28;20075;-76
2021/09/18 00:23:00;;;;;;;7.22;5.53;;;14.20;99.90;;;;;;5071715;28;20033;-75
2021/09/18 00:25:27;;;;;;;11.88;5.70;;;14.30;99.90;;;;;;5070645;28;20089;-75
2021/09/18 00:27:52;;;;;;;10.05;6.05;;;14.30;99.90;;;;;;5071712;28;20085;-75
2021/09/18 00:30:18;;;;;;;10.27;5.82;;;14.40;99.90;;;;;;5071753;28;20498;-76
2021/09/18 00:32:45;;;;;;;10.57;5.65;;;14.40;99.90;;;;;;5070513;28;20542;-76
2021/09/18 00:35:11;;;;;;;10.10;5.32;;;14.20;99.90;;;;;;5071548;28;20028;-75
2021/09/18 00:37:37;;;;;;;7.45;4.53;;;13.90;99.90;;;;;;5071628;28;20110;-76
2021/09/18 00:40:05;;;;;;;10.20;5.35;;;13.60;99.90;;;;;;5071498;28;20082;-76
2021/09/18 00:42:31;;;;;;;13.48;5.68;;;13.60;99.90;;;;;;5070406;28;20397;-76
2021/09/18 00:44:57;;;;;;;6.93;4.55;;;13.70;99.90;;;;;;5071810;28;20029;-76
2021/09/18 00:47:23;;;;;;;8.55;5.07;;;13.70;99.90;;;;;;5071617;28;20436;-76
2021/09/18 00:49:48;;;;;;;14.18;5.28;;;13.60;99.90;;;;;;5071841;28;20033;-76
2021/09/18 00:52:19;;;;;;;10.15;6.57;;;13.60;99.90;;;;;;5074871;28;20036;-76
2021/09/18 00:54:47;;;;;;;10.93;5.80;;;13.30;99.90;;;;;;5074103;28;20033;-75
2021/09/18 00:57:14;;;;;;;11.13;5.22;;;13.10;99.90;;;;;;5073752;28;20397;-76
2021/09/18 00:59:41;;;;;;;8.82;6.03;;;13.00;99.90;;;;;;5073870;28;20500;-75
2021/09/18 01:02:07;;;;;;;9.52;5.70;;;13.00;99.90;;;;;;5073803;28;20044;-75
2021/09/18 01:04:32;;;;;;;9.75;5.70;;;13.10;99.90;;;;;;5075218;28;20154;-76
2021/09/18 01:06:58;;;;;;;10.13;5.82;;;13.20;99.90;;;;;;5075154;28;20040;-75
2021/09/18 01:09:25;;;;;;;10.93;5.28;;;13.20;99.90;;;;;;5075090;28;20035;-76
2021/09/18 01:11:51;;;;;;;9.93;5.60;;;13.30;99.90;;;;;;5073607;28;20481;-75
2021/09/18 01:14:16;;;;;;;9.48;5.95;;;13.30;99.90;;;;;;5074483;28;20188;-75
2021/09/18 01:16:42;;;;;;;11.10;6.15;;;13.30;99.90;;;;;;5074679;28;20079;-76
2021/09/18 01:19:09;;;;;;;9.65;6.55;;;13.40;99.90;;;;;;5073259;28;20060;-75
2021/09/18 01:21:35;;;;;;;9.68;6.10;;;13.30;99.90;;;;;;5073779;28;20033;-75
2021/09/18 01:24:01;;;;;;;7.57;5.63;;;13.30;99.90;;;;;;5074710;28;20020;-75
2021/09/18 01:26:32;;;;;;;7.88;5.78;;;13.40;99.90;;;;;;5074682;28;20067;-74
2021/09/18 01:28:59;;;;;;;12.82;5.97;;;13.40;99.90;;;;;;5074385;28;20029;-75
2021/09/18 01:31:26;;;;;;;9.48;5.97;;;13.30;99.90;;;;;;5073320;28;20084;-75
2021/09/18 01:33:52;;;;;;;9.63;6.57;;;13.30;99.90;;;;;;5074698;28;20029;-75
2021/09/18 01:36:17;;;;;;;9.65;6.03;;;13.30;99.90;;;;;;5074381;28;20044;-74
2021/09/18 01:38:43;;;;;;;8.43;5.70;;;13.30;99.90;;;;;;5074124;28;20040;-75
2021/09/18 01:41:09;;;;;;;9.05;5.93;;;13.20;99.90;;;;;;5073028;28;20028;-75
2021/09/18 01:43:35;;;;;;;9.05;6.18;;;13.30;99.90;;;;;;5074512;28;20036;-75
2021/09/18 01:46:00;;;;;;;11.07;5.97;;;13.40;99.90;;;;;;5074060;28;20372;-75
2021/09/18 01:48:26;;;;;;;10.27;6.25;;;13.40;99.90;;;;;;5074100;28;20082;-74
2021/09/18 01:50:55;;;;;;;9.85;5.68;;;13.30;99.90;;;;;;5074465;28;20040;-74
2021/09/18 01:53:24;;;;;;;9.75;5.65;;;13.20;99.90;;;;;;5072824;28;20040;-74
2021/09/18 01:55:51;;;;;;;7.53;5.22;;;13.00;99.90;;;;;;5074086;28;20032;-75
2021/09/18 01:58:18;;;;;;;12.43;5.82;;;13.10;99.90;;;;;;5073803;28;20033;-75
2021/09/18 02:00:54;;;;;;;7.68;5.88;;;13.20;99.90;;;;;;5074218;28;20058;-75
2021/09/18 02:03:20;;;;;;;11.07;5.13;;;13.10;99.90;;;;;;5072916;28;20508;-75
2021/09/18 02:05:47;;;;;;;14.40;5.88;;;13.10;99.90;;;;;;5073818;28;20037;-75
2021/09/18 02:08:13;;;;;;;9.27;5.75;;;13.00;99.90;;;;;;5073652;28;20047;-75
2021/09/18 02:10:42;;;;;;;8.18;6.10;;;12.90;99.90;;;;;;5072760;28;20037;-75
2021/09/18 02:13:10;;;;;;;9.95;5.72;;;12.90;99.90;;;;;;5072154;28;20064;-75
2021/09/18 02:15:36;;;;;;;10.82;5.80;;;12.80;99.90;;;;;;5073440;28;20059;-75
2021/09/18 02:18:04;;;;;;;12.50;6.40;;;12.90;99.90;;;;;;5055642;28;20381;-75
2021/09/18 02:20:30;;;;;;;10.85;7.00;;;13.00;99.90;;;;;;5073488;28;20047;-75
2021/09/18 02:22:57;;;;;;;9.90;6.28;;;13.00;99.90;;;;;;5073415;28;20078;-75
2021/09/18 02:25:25;;;;;;;7.95;5.95;;;13.00;99.90;;;;;;5072297;28;20043;-75
2021/09/18 02:27:51;;;;;;;10.65;6.22;;;13.10;99.90;;;;;;5073424;28;20397;-74
2021/09/18 02:30:25;;;;;;;9.60;6.72;;;13.10;99.90;;;;;;5073123;28;20029;-74
2021/09/18 02:32:52;;;;;;;12.02;6.18;;;13.20;99.90;;;;;;5073581;28;20037;-73
2021/09/18 02:35:21;;;;;;;8.07;6.35;;;13.10;99.90;;;;;;5072094;28;20040;-74
2021/09/18 02:37:54;;;;;;;11.05;5.68;;;13.10;99.90;;;;;;5073185;28;20034;-75
2021/09/18 02:40:22;;;;;;;7.57;5.32;;;13.00;99.90;;;;;;5072132;28;20170;-74
2021/09/18 02:42:56;;;;;;;7.70;5.63;;;13.00;99.90;;;;;;5073106;28;20487;-74
2021/09/18 02:45:22;;;;;;;9.20;6.55;;;13.00;99.90;;;;;;5071650;28;20052;-75
2021/09/18 02:47:48;;;;;;;10.18;7.60;;;13.00;99.90;;;;;;5073210;28;20067;-75
2021/09/18 02:50:17;;;;;;;13.20;8.43;;;13.00;99.90;;;;;;5073080;28;20119;-75
2021/09/18 02:52:43;;;;;;;12.90;7.93;;;13.00;99.90;;;;;;5072938;28;20033;-74
2021/09/18 02:55:10;;;;;;;10.07;6.60;;;13.10;99.90;;;;;;5072686;28;20408;-75
2021/09/18 02:57:36;;;;;;;8.65;6.32;;;13.20;99.90;;;;;;5071957;28;20115;-74
2021/09/18 03:00:04;;;;;;;10.60;7.60;;;13.20;99.90;;;;;;5071171;28;20206;-75
2021/09/18 03:02:30;;;;;;;9.43;6.68;;;13.40;99.90;;;;;;5073032;28;20042;-75
2021/09/18 03:04:56;;;;;;;10.80;7.05;;;13.40;99.90;;;;;;5072659;28;20107;-75
2021/09/18 03:07:21;;;;;;;10.38;6.60;;;13.40;99.90;;;;;;5072540;28;20384;-75
2021/09/18 03:09:47;;;;;;;11.48;6.80;;;13.40;99.90;;;;;;5072847;28;20070;-75
2021/09/18 03:12:13;;;;;;;8.50;6.05;;;13.40;99.90;;;;;;5072805;28;20035;-75
2021/09/18 03:14:38;;;;;;;10.82;6.25;;;13.30;99.90;;;;;;5070437;28;20436;-75
2021/09/18 03:17:04;;;;;;;8.95;6.00;;;13.20;99.90;;;;;;5072280;28;20048;-75
2021/09/18 03:19:30;;;;;;;10.30;5.68;;;13.20;99.90;;;;;;5072385;28;20055;-76
2021/09/18 03:21:56;;;;;;;8.85;6.13;;;13.10;99.90;;;;;;5072828;28;20614;-76
2021/09/18 03:24:21;;;;;;;12.85;5.90;;;13.10;99.90;;;;;;5072509;28;20032;-76
2021/09/18 03:26:47;;;;;;;12.65;7.45;;;13.00;99.90;;;;;;5072845;28;20032;-76
2021/09/18 03:29:13;;;;;;;13.68;5.88;;;13.00;99.90;;;;;;5072509;28;20040;-75
2021/09/18 03:31:42;;;;;;;8.30;5.93;;;12.90;99.90;;;;;;5071463;28;20045;-75
2021/09/18 03:34:07;;;;;;;12.27;6.53;;;12.70;99.90;;;;;;5072251;28;20028;-75
2021/09/18 03:36:33;;;;;;;11.40;6.78;;;12.80;99.90;;;;;;5088230;28;20105;-75
2021/09/18 03:38:59;;;;;;;12.32;8.07;;;12.80;99.90;;;;;;5072246;28;20036;-75
2021/09/18 03:41:25;;;;;;;10.65;6.97;;;12.60;99.90;;;;;;5072349;28;20790;-75
2021/09/18 03:43:50;;;;;;;14.68;8.25;;;12.60;99.90;;;;;;5072311;28;20070;-75
2021/09/18 03:46:17;;;;;;;11.90;6.63;;;12.70;99.90;;;;;;5072311;28;20025;-75
2021/09/18 03:48:43;;;;;;;13.32;7.18;;;12.80;99.90;;;;;;5071011;28;20028;-76
2021/09/18 03:51:09;;;;;;;9.90;6.53;;;12.90;99.90;;;;;;5072477;28;20055;-75
2021/09/18 03:53:35;;;;;;;10.43;6.72;;;12.90;99.90;;;;;;5071187;28;20039;-75
2021/09/18 03:56:01;;;;;;;14.02;7.35;;;12.80;99.90;;;;;;5087614;28;20385;-75
2021/09/18 03:58:27;;;;;;;11.90;6.13;;;12.70;99.90;;;;;;5072291;28;20154;-75
2021/09/18 04:00:53;;;;;;;8.27;5.60;;;12.70;99.90;;;;;;5072053;28;20028;-75
2021/09/18 04:03:19;;;;;;;10.15;5.38;;;12.50;99.90;;;;;;5072181;28;20028;-75
2021/09/18 04:05:44;;;;;;;9.98;5.22;;;12.20;99.90;;;;;;5071950;28;20036;-74
2021/09/18 04:08:11;;;;;;;10.02;5.28;;;12.30;99.90;;;;;;5071739;28;20029;-74
2021/09/18 04:10:38;;;;;;;9.48;6.05;;;12.40;99.90;;;;;;5072040;28;20032;-75
2021/09/18 04:13:04;;;;;;;9.90;6.40;;;12.50;99.90;;;;;;5070658;28;20469;-75
2021/09/18 04:15:30;;;;;;;11.00;6.95;;;12.40;99.90;;;;;;5070399;28;20416;-74
2021/09/18 04:17:58;;;;;;;12.40;7.28;;;12.30;99.90;;;;;;5071893;28;20058;-74
2021/09/18 04:20:25;;;;;;;13.52;8.20;;;12.30;99.90;;;;;;5072009;28;20493;-75
2021/09/18 04:22:51;;;;;;;14.55;9.48;;;12.40;99.90;;;;;;5054087;28;20032;-75
2021/09/18 04:25:17;;;;;;;16.13;9.77;;;12.30;99.90;;;;;;5071219;28;20032;-75
2021/09/18 04:27:43;;;;;;;15.27;9.48;;;12.20;99.90;;;;;;5074611;28;20032;-74
2021/09/18 04:30:09;;;;;;;14.55;8.57;;;12.10;99.90;;;;;;5075500;28;20074;-75
2021/09/18 04:32:35;;;;;;;11.65;7.13;;;12.20;99.90;;;;;;5091339;28;20025;-75
2021/09/18 04:35:01;;;;;;;7.70;6.25;;;12.10;99.90;;;;;;5075600;28;20036;-75
2021/09/18 04:37:27;;;;;;;13.63;6.30;;;12.20;99.90;;;;;;5075402;28;20040;-75
2021/09/18 04:39:52;;;;;;;9.10;5.30;;;12.20;99.90;;;;;;5075446;28;20036;-75
2021/09/18 04:42:18;;;;;;;8.95;4.80;;;12.20;99.90;;;;;;5075274;28;20040;-75
2021/09/18 04:44:44;;;;;;;6.75;4.68;;;12.10;99.90;;;;;;5075359;28;20036;-75
2021/09/18 04:47:09;;;;;;;10.02;4.72;;;11.90;99.90;;;;;;5075441;28;20033;-75
2021/09/18 04:49:37;;;;;;;12.07;5.90;;;11.90;99.90;;;;;;5075638;28;20098;-75
2021/09/18 04:52:04;;;;;;;10.02;6.10;;;11.40;99.90;;;;;;5074216;28;20060;-77
2021/09/18 04:54:30;;;;;;;10.95;7.25;;;11.40;99.90;;;;;;5074996;28;20591;-75
2021/09/18 04:56:56;;;;;;;10.23;7.25;;;11.50;99.90;;;;;;5074214;28;20088;-75
2021/09/18 04:59:21;;;;;;;12.70;6.88;;;11.60;99.90;;;;;;5075018;28;20062;-76
2021/09/18 05:01:47;;;;;;;11.98;7.00;;;11.70;99.90;;;;;;5075287;28;20470;-75
2021/09/18 05:04:13;;;;;;;11.25;7.10;;;11.70;99.90;;;;;;5075196;28;20032;-75
2021/09/18 05:06:39;;;;;;;12.02;7.63;;;11.70;99.90;;;;;;5075234;28;20469;-75
2021/09/18 05:09:04;;;;;;;10.20;7.60;;;11.80;99.90;;;;;;5075090;28;20037;-75
2021/09/18 05:11:30;;;;;;;12.52;7.85;;;12.10;99.90;;;;;;5074633;28;20056;-75
2021/09/18 05:13:57;;;;;;;10.10;7.45;;;12.20;99.90;;;;;;5073504;28;20028;-75
2021/09/18 05:16:24;;;;;;;17.98;11.43;;;12.20;99.90;;;;;;5074445;28;20036;-75
2021/09/18 05:18:50;;;;;;;12.73;7.60;;;12.50;99.90;;;;;;5074982;28;20036;-74
2021/09/18 05:21:16;;;;;;;12.35;8.77;;;12.30;99.90;;;;;;5074605;28;20391;-75
2021/09/18 05:23:42;;;;;;;8.48;6.15;;;12.10;99.90;;;;;;5073456;28;20103;-75
2021/09/18 05:26:09;;;;;;;11.40;6.68;;;12.00;99.90;;;;;;5074793;28;20039;-75
2021/09/18 05:28:35;;;;;;;7.55;5.50;;;11.90;99.90;;;;;;5074411;28;20043;-72
2021/09/18 05:31:00;;;;;;;11.90;5.95;;;11.80;99.90;;;;;;5074317;28;20389;-70
2021/09/18 05:33:26;;;;;;;9.55;6.80;;;11.90;99.90;;;;;;5076441;28;20032;-72
2021/09/18 05:35:52;;;;;;;9.52;6.72;;;12.00;99.90;;;;;;5083106;28;20029;-73
2021/09/18 05:38:17;;;;;;;10.95;7.40;;;12.00;99.90;;;;;;5073099;28;20048;-73
2021/09/18 05:40:43;;;;;;;9.82;7.07;;;11.80;99.90;;;;;;5085093;28;20040;-62
2021/09/18 05:43:09;;;;;;;13.48;7.13;;;12.00;99.90;;;;;;5074181;28;20039;-61
2021/09/18 05:45:35;;;;;;;12.90;8.05;;;12.00;99.90;;;;;;5074026;28;20135;-61
2021/09/18 05:48:04;;;;;;;11.07;7.50;;;12.10;99.90;;;;;;5074095;28;20032;-60
2021/09/18 05:50:32;;;;;;;12.10;7.65;;;12.30;99.90;;;;;;5074267;28;20028;-61
2021/09/18 05:52:57;;;;;;;11.10;8.38;;;12.40;99.90;;;;;;5074191;28;20108;-61
2021/09/18 05:55:23;;;;;;;10.88;8.05;;;12.30;99.90;;;;;;5073081;28;20571;-63
2021/09/18 05:57:49;;;;;;;12.63;7.88;;;12.30;99.90;;;;;;5073530;28;20062;-61
2021/09/18 06:00:15;;;;;;;12.27;8.00;;;12.10;99.90;;;;;;5073873;28;20037;-61
2021/09/18 06:02:44;;;;;;;12.15;7.68;;;12.00;99.90;;;;;;5073657;28;20025;-61
2021/09/18 06:05:11;;;;;;;10.88;8.45;;;11.90;99.90;;;;;;5074004;28;20032;-63
2021/09/18 06:07:38;;;;;;;11.73;8.68;;;11.90;99.90;;;;;;5073735;28;20376;-62
2021/09/18 06:10:05;;;;;;;24.50;16.48;;;12.00;99.90;;;;;;5073790;28;20029;-62
2021/09/18 06:12:31;;;;;;;20.15;13.90;;;12.20;99.90;;;;;;5073350;28;20024;-62
2021/09/18 06:14:57;;;;;;;55.50;26.80;;;12.50;99.90;;;;;;5073544;28;20477;-61
2021/09/18 06:17:23;;;;;;;13.20;9.77;;;12.90;99.90;;;;;;5073607;28;20461;-63
2021/09/18 06:19:49;;;;;;;14.10;10.07;;;12.60;99.90;;;;;;5073569;28;20039;-62
2021/09/18 06:22:15;;;;;;;12.15;8.48;;;12.70;99.90;;;;;;5073663;28;20034;-63
2021/09/18 06:24:43;;;;;;;13.23;9.57;;;12.60;99.90;;;;;;5073594;28;20055;-63
2021/09/18 06:27:09;;;;;;;11.70;7.72;;;12.70;99.90;;;;;;5073465;28;20024;-63
2021/09/18 06:29:35;;;;;;;10.95;8.25;;;12.70;99.90;;;;;;5073496;28;20423;-61
2021/09/18 06:32:01;;;;;;;11.57;8.25;;;12.70;99.90;;;;;;5078244;28;20024;-62
2021/09/18 06:34:27;;;;;;;11.43;8.45;;;12.70;99.90;;;;;;5093507;28;20028;-61
2021/09/18 06:36:53;;;;;;;10.80;8.27;;;12.80;99.90;;;;;;5093677;28;20381;-62
2021/09/18 06:39:19;;;;;;;10.80;7.18;;;12.90;99.90;;;;;;5093447;28;20494;-62
2021/09/18 06:41:44;;;;;;;10.75;7.97;;;12.90;99.90;;;;;;5093639;28;20029;-64
2021/09/18 06:44:10;;;;;;;10.25;7.78;;;12.80;99.90;;;;;;5093477;28;20111;-61
2021/09/18 06:46:36;;;;;;;8.93;7.15;;;13.00;99.90;;;;;;5093266;28;20020;-61
2021/09/18 06:49:02;;;;;;;13.02;7.47;;;13.20;99.90;;;;;;5093018;28;20115;-61
2021/09/18 06:51:27;;;;;;;11.98;7.65;;;13.20;99.90;;;;;;5093316;28;20032;-61
2021/09/18 06:53:53;;;;;;;10.63;7.88;;;13.30;99.90;;;;;;5093276;28;20028;-62
2021/09/18 06:56:19;;;;;;;15.75;8.25;;;13.30;99.90;;;;;;5093114;28;20034;-60
2021/09/18 06:58:45;;;;;;;15.93;9.07;;;13.00;99.90;;;;;;5093088;28;20043;-62
2021/09/18 07:01:10;;;;;;;12.48;8.50;;;13.00;99.90;;;;;;5093124;28;20473;-66
2021/09/18 07:03:36;;;;;;;16.65;10.32;;;13.20;99.90;;;;;;5074611;28;20036;-64
2021/09/18 07:06:02;;;;;;;14.68;10.20;;;13.40;99.90;;;;;;5072968;28;20073;-63
2021/09/18 07:08:28;;;;;;;17.48;10.55;;;13.30;99.90;;;;;;5072320;28;20021;-65
2021/09/18 07:10:54;;;;;;;14.57;10.00;;;13.60;99.90;;;;;;5072813;28;20477;-63
2021/09/18 07:13:20;;;;;;;18.35;9.73;;;13.70;99.90;;;;;;5072612;28;20024;-63
2021/09/18 07:15:46;;;;;;;14.52;9.40;;;13.70;99.90;;;;;;5072533;28;20075;-62
2021/09/18 07:18:11;;;;;;;13.73;9.48;;;13.70;99.90;;;;;;5072293;28;20362;-62
2021/09/18 07:20:37;;;;;;;18.63;10.63;;;13.90;99.90;;;;;;5072640;28;20044;-63
2021/09/18 07:23:03;;;;;;;17.05;10.15;;;13.90;99.90;;;;;;5072544;28;20029;-62
2021/09/18 07:25:29;;;;;;;14.95;9.20;;;14.00;99.90;;;;;;5071506;28;20036;-64
2021/09/18 07:27:55;;;;;;;15.45;10.15;;;14.00;99.90;;;;;;5072416;28;20458;-62
2021/09/18 07:30:21;;;;;;;16.80;11.18;;;14.10;99.90;;;;;;5072334;28;20058;-63
2021/09/18 07:32:47;;;;;;;15.40;10.57;;;14.30;99.90;;;;;;5080589;28;20142;-61
2021/09/18 07:35:13;;;;;;;17.63;12.48;;;14.20;99.90;;;;;;5080955;28;20028;-62
2021/09/18 07:37:39;;;;;;;20.02;13.90;;;14.20;99.90;;;;;;5072943;28;20128;-63
2021/09/18 07:40:11;;;;;;;18.77;14.32;;;14.20;99.90;;;;;;5072871;28;20028;-62
2021/09/18 07:42:37;;;;;;;19.50;14.15;;;14.40;99.90;;;;;;5074198;28;20124;-66
2021/09/18 07:45:06;;;;;;;22.50;15.63;;;14.70;99.90;;;;;;5091281;28;20036;-72
2021/09/18 07:47:32;;;;;;;26.25;16.38;;;14.60;99.90;;;;;;5090848;28;20038;-68
2021/09/18 07:49:59;;;;;;;24.20;14.82;;;14.60;99.90;;;;;;5091877;28;20492;-70
2021/09/18 07:52:27;;;;;;;18.83;13.77;;;14.80;99.90;;;;;;5091702;28;20480;-71
2021/09/18 07:54:53;;;;;;;21.25;15.35;;;14.90;99.90;;;;;;5084269;28;20017;-70
2021/09/18 07:57:19;;;;;;;18.70;14.40;;;15.10;99.90;;;;;;5072113;28;20082;-72
2021/09/18 07:59:44;;;;;;;21.45;14.50;;;15.20;99.90;;;;;;5070335;28;20032;-72
2021/09/18 08:02:10;;;;;;;21.63;14.20;;;15.30;99.90;;;;;;5075783;28;20024;-72
2021/09/18 08:04:36;;;;;;;22.45;15.30;;;15.30;99.90;;;;;;5075859;28;20047;-71
2021/09/18 08:07:02;;;;;;;20.63;14.90;;;15.10;99.90;;;;;;5076064;28;20040;-72
2021/09/18 08:09:27;;;;;;;19.00;13.00;;;15.10;99.90;;;;;;5074554;28;20393;-73
2021/09/18 08:11:54;;;;;;;21.33;14.45;;;15.30;99.90;;;;;;5074876;28;20032;-73
2021/09/18 08:14:20;;;;;;;20.48;13.23;;;15.50;99.90;;;;;;5075877;28;20147;-72
2021/09/18 08:16:46;;;;;;;18.13;13.10;;;15.60;99.90;;;;;;5075664;28;20040;-72
2021/09/18 08:19:12;;;;;;;23.38;14.10;;;15.80;99.90;;;;;;5074400;28;20074;-72
2021/09/18 08:21:38;;;;;;;15.23;11.43;;;15.80;99.90;;;;;;5075378;28;20504;-72
2021/09/18 08:24:05;;;;;;;17.88;12.35;;;15.80;99.90;;;;;;5075676;28;20090;-72
2021/09/18 08:26:30;;;;;;;27.95;16.45;;;16.00;99.90;;;;;;5074341;28;20423;-72
2021/09/18 08:29:01;;;;;;;18.38;12.00;;;16.10;99.90;;;;;;5075430;28;20094;-72
2021/09/18 08:31:27;;;;;;;18.73;12.43;;;16.30;99.90;;;;;;5074193;28;20086;-72
2021/09/18 08:33:53;;;;;;;20.15;12.65;;;16.30;99.90;;;;;;5057836;28;20033;-72
2021/09/18 08:36:19;;;;;;;17.95;12.25;;;16.40;99.90;;;;;;5074185;28;20493;-72
2021/09/18 08:38:45;;;;;;;18.20;12.02;;;16.50;99.90;;;;;;5057495;28;20029;-73
2021/09/18 08:41:13;;;;;;;16.70;11.25;;;16.60;99.90;;;;;;5075570;28;20150;-72
2021/09/18 08:43:38;;;;;;;18.48;11.85;;;16.80;99.90;;;;;;5073988;28;20029;-72
2021/09/18 08:46:04;;;;;;;17.88;11.70;;;16.90;99.90;;;;;;5075285;28;20033;-72
2021/09/18 08:48:32;;;;;;;18.98;12.38;;;17.10;99.90;;;;;;5074973;28;20033;-72
2021/09/18 08:50:58;;;;;;;17.67;11.40;;;17.30;99.90;;;;;;5075074;28;20059;-72
2021/09/18 08:53:23;;;;;;;17.10;11.68;;;17.40;99.90;;;;;;5075305;28;20048;-72
2021/09/18 08:55:55;;;;;;;16.48;11.73;;;17.60;99.90;;;;;;5075022;28;20043;-71
2021/09/18 08:58:21;;;;;;;16.02;11.73;;;17.70;99.90;;;;;;5073716;28;20024;-72
2021/09/18 09:00:53;;;;;;;15.75;11.40;;;17.70;99.90;;;;;;5073951;28;20032;-72
2021/09/18 09:03:23;;;;;;;22.05;13.05;;;17.90;99.90;;;;;;5074909;28;20028;-73
2021/09/18 09:05:49;;;;;;;19.77;12.80;;;17.90;99.90;;;;;;5073679;28;20127;-73
2021/09/18 09:08:18;;;;;;;18.65;11.93;;;18.00;99.90;;;;;;5074844;28;20044;-72
2021/09/18 09:10:47;;;;;;;19.25;10.02;;;18.30;99.90;;;;;;5073606;28;20107;-72
2021/09/18 09:13:20;;;;;;;14.65;10.63;;;18.40;99.90;;;;;;5073462;28;20033;-72
2021/09/18 09:15:50;;;;;;;19.45;11.48;;;18.60;99.90;;;;;;5073400;28;20049;-72
2021/09/18 09:18:25;;;;;;;19.00;10.77;;;18.30;99.90;;;;;;5073518;28;20028;-72
2021/09/18 09:21:23;;;;;;;17.05;11.25;;;18.50;99.90;;;;;;5073750;28;20139;-72
2021/09/18 09:24:11;;;;;;;18.42;11.52;;;18.80;99.90;;;;;;5057181;28;20029;-73
2021/09/18 09:26:41;;;;;;;16.77;10.45;;;18.60;99.90;;;;;;5074593;28;20032;-72
2021/09/18 09:29:09;;;;;;;16.77;10.95;;;18.80;99.90;;;;;;5081923;28;20020;-72
2021/09/18 09:31:38;;;;;;;17.77;11.00;;;19.10;99.90;;;;;;5076708;28;20058;-73
2021/09/18 09:34:14;;;;;;;16.05;10.45;;;19.10;99.90;;;;;;5094906;28;20043;-72
2021/09/18 09:36:45;;;;;;;16.83;10.82;;;19.30;99.90;;;;;;5094464;28;20392;-72
2021/09/18 09:39:15;;;;;;;16.67;11.18;;;19.30;99.90;;;;;;5093272;28;20040;-72
2021/09/18 09:41:41;;;;;;;19.45;10.82;;;19.50;99.90;;;;;;5094576;28;20115;-72
2021/09/18 09:44:18;;;;;;;17.17;10.75;;;19.60;99.90;;;;;;5093237;28;20024;-72
2021/09/18 09:47:02;;;;;;;13.10;9.88;;;19.60;99.90;;;;;;5092918;28;20480;-72
2021/09/18 09:49:57;;;;;;;16.15;10.57;;;19.80;99.90;;;;;;5094359;28;20054;-73
2021/09/18 09:52:29;;;;;;;15.75;10.27;;;19.90;99.90;;;;;;5093668;28;20036;-72
2021/09/18 09:55:06;;;;;;;19.50;9.98;;;19.90;99.90;;;;;;5094241;28;20032;-73
2021/09/18 09:57:32;;;;;;;13.38;9.40;;;20.00;99.90;;;;;;5085207;28;20052;-72
2021/09/18 10:00:09;;;;;;;12.30;8.30;;;20.30;99.90;;;;;;5090331;28;20028;-72
2021/09/18 10:02:37;;;;;;;17.65;10.88;;;20.40;99.90;;;;;;5093852;28;20415;-72
2021/09/18 10:05:09;;;;;;;13.48;7.88;;;20.80;99.90;;;;;;5094294;28;20031;-72
2021/09/18 10:07:36;;;;;;;11.15;7.80;;;20.90;99.90;;;;;;5092622;28;20031;-72
2021/09/18 10:10:05;;;;;;;10.35;7.25;;;21.10;99.90;;;;;;5075872;28;20481;-72
2021/09/18 10:12:32;;;;;;;17.73;8.60;;;21.00;99.90;;;;;;5093589;28;20510;-72
2021/09/18 10:15:01;;;;;;;15.18;7.20;;;20.50;99.90;;;;;;5092704;28;20409;-72
2021/09/18 10:17:28;;;;;;;11.88;6.85;;;21.00;99.90;;;;;;5092470;28;20047;-72
2021/09/18 10:20:06;;;;;;;7.50;5.45;;;21.20;99.90;;;;;;5092686;28;20085;-73
2021/09/18 10:25:33;;;;;;;11.48;7.05;;;21.30;99.90;;;;;;5093584;28;20047;-73
2021/09/18 10:28:08;;;;;;;9.52;6.22;;;21.60;99.90;;;;;;5092316;28;20028;-73
2021/09/18 10:30:54;;;;;;;9.25;5.53;;;21.80;99.90;;;;;;5092428;28;20154;-72
2021/09/18 10:33:41;;;;;;;11.98;6.57;;;21.80;99.90;;;;;;5093209;28;20047;-73
2021/09/18 10:36:12;;;;;;;10.57;6.10;;;21.90;99.90;;;;;;5093803;28;20456;-72
2021/09/18 10:38:46;;;;;;;6.78;4.75;;;21.50;99.90;;;;;;5093661;28;20040;-73
2021/09/18 10:41:17;;;;;;;12.05;5.90;;;22.00;99.90;;;;;;5092277;28;20481;-74
2021/09/18 10:43:56;;;;;;;10.98;5.80;;;21.60;99.90;;;;;;5092196;28;20028;-74
2021/09/18 10:46:46;;;;;;;15.63;6.93;;;21.60;99.90;;;;;;5092388;28;20028;-74
2021/09/18 10:49:33;;;;;;;8.53;5.50;;;22.00;99.90;;;;;;5093209;28;20133;-74
2021/09/18 10:52:21;;;;;;;8.52;5.32;;;22.70;99.90;;;;;;5092894;28;20423;-74
2021/09/18 10:55:10;;;;;;;6.93;4.50;;;23.00;99.90;;;;;;5092505;28;20024;-73
2021/09/18 10:57:41;;;;;;;7.13;4.60;;;23.00;99.90;;;;;;5092237;28;20036;-73
2021/09/18 11:00:22;;;;;;;7.72;4.40;;;23.10;99.90;;;;;;5091302;28;20041;-79
2021/09/18 11:02:57;;;;;;;10.27;4.68;;;23.70;99.50;;;;;;5091525;28;20063;-74
2021/09/18 11:05:25;;;;;;;8.40;4.95;;;23.10;99.90;;;;;;5093025;28;20043;-75
2021/09/18 11:07:53;;;;;;;7.97;5.03;;;22.80;99.60;;;;;;5092983;28;20473;-72
2021/09/18 11:10:22;;;;;;;7.97;4.65;;;22.20;99.90;;;;;;5092623;28;20032;-72
2021/09/18 11:13:10;;;;;;;7.60;5.15;;;22.90;99.90;;;;;;5091336;28;20043;-73
2021/09/18 11:15:44;;;;;;;8.82;5.53;;;22.50;99.90;;;;;;5092289;28;20527;-70
2021/09/18 11:18:14;;;;;;;8.27;4.32;;;23.30;99.90;;;;;;5092808;28;20040;-71
2021/09/18 11:20:41;;;;;;;7.05;4.45;;;23.70;99.10;;;;;;5091129;28;20031;-69
2021/09/18 11:23:07;;;;;;;8.15;4.57;;;23.30;97.60;;;;;;5090997;28;20398;-68
2021/09/18 11:25:41;;;;;;;7.25;4.20;;;22.70;99.20;;;;;;5091265;28;20384;-69
2021/09/18 11:28:14;;;;;;;6.60;4.18;;;23.20;99.50;;;;;;5092845;28;20555;-69
2021/09/18 11:30:53;;;;;;;5.07;3.90;;;23.10;98.30;;;;;;5092259;28;20568;-72
2021/09/18 11:33:24;;;;;;;5.97;3.70;;;23.20;98.50;;;;;;5092628;28;20032;-71
2021/09/18 11:35:56;;;;;;;;;;;23.70;98.20;;;;;;5092184;28;20036;-71
2021/09/18 11:38:33;;;;;;;8.70;4.22;;;24.20;97.80;;;;;;5089515;28;19974;-72
2021/09/18 11:41:07;;;;;;;6.82;4.00;;;23.40;98.20;;;;;;5070841;28;20510;-72
2021/09/18 11:43:35;;;;;;;6.45;3.30;;;23.70;97.10;;;;;;5072371;28;20477;-70
2021/09/18 11:46:01;;;;;;;6.22;3.80;;;24.00;98.00;;;;;;5071790;28;20504;-68
2021/09/18 11:48:33;;;;;;;7.55;3.47;;;24.20;97.00;;;;;;5071834;28;20035;-69
2021/09/18 11:51:05;;;;;;;5.10;3.53;;;25.40;96.10;;;;;;5072111;28;20109;-67
2021/09/18 11:53:31;;;;;;;4.40;2.75;;;24.80;94.80;;;;;;5071168;28;20031;-68
2021/09/18 11:55:58;;;;;;;4.20;2.78;;;25.60;95.60;;;;;;5072194;28;20029;-68
2021/09/18 11:58:28;;;;;;;4.45;2.75;;;26.30;93.50;;;;;;5072098;28;20043;-68
2021/09/18 12:01:05;;;;;;;10.27;3.33;;;26.50;91.90;;;;;;5072296;28;20036;-68
2021/09/18 12:03:40;;;;;;;3.40;2.45;;;24.80;91.80;;;;;;5071809;28;20115;-68
2021/09/18 12:06:16;;;;;;;4.20;2.40;;;24.80;93.30;;;;;;5072283;28;20029;-69
2021/09/18 12:08:45;;;;;;;4.07;2.67;;;24.60;92.80;;;;;;5071792;28;20032;-69
2021/09/18 12:11:13;;;;;;;3.88;2.75;;;25.50;92.50;;;;;;5070700;28;20040;-68
2021/09/18 12:13:54;;;;;;;4.10;2.65;;;25.30;91.20;;;;;;5071628;28;20029;-68
2021/09/18 12:16:23;;;;;;;3.70;2.33;;;26.70;91.40;;;;;;5071842;28;20159;-68
2021/09/18 12:18:51;;;;;;;2.67;2.08;;;27.60;90.90;;;;;;5071843;28;20048;-69
2021/09/18 12:21:27;;;;;;;5.30;3.13;;;28.90;85.50;;;;;;5071799;28;20046;-67
2021/09/18 12:24:02;;;;;;;5.72;3.10;;;29.30;84.60;;;;;;5071664;28;20028;-68
2021/09/18 12:26:30;;;;;;;4.18;2.92;;;30.20;81.40;;;;;;5072059;28;20028;-72
2021/09/18 12:29:14;;;;;;;5.38;3.30;;;29.90;79.20;;;;;;5071874;28;20104;-74
2021/09/18 12:31:43;;;;;;;4.88;3.28;;;30.00;79.20;;;;;;5071732;28;20036;-71
2021/09/18 12:34:18;;;;;;;5.30;3.80;;;29.70;78.80;;;;;;5070462;28;20036;-73
2021/09/18 12:36:46;;;;;;;8.32;3.72;;;27.60;84.00;;;;;;5070575;28;20119;-73
2021/09/18 12:39:12;;;;;;;6.80;3.30;;;28.80;82.90;;;;;;5070462;28;20033;-73
2021/09/18 12:41:42;;;;;;;6.22;3.50;;;28.60;83.00;;;;;;5071705;28;20044;-77
2021/09/18 12:44:16;;;;;;;3.83;2.58;;;28.80;81.40;;;;;;5071570;28;20119;-71
2021/09/18 12:46:44;;;;;;;6.05;3.00;;;29.30;80.40;;;;;;5072645;28;20465;-75